Terminal Aerodrome Forecast
Issued by NWS

Home | Current Version | Previous Version | Text Only | Print | Product List | Glossary On
Versions: 1 2 3 4 5 6 7 8 9 10 11 12 13
000
FTUS45 KABQ 261700 RRA
TAFROW
TAF
KROW 261741Z 2618/2718 24015G25KT P6SM BKN110
     FM262200 25018G28KT P6SM VCSH SCT070 OVC100
     FM270200 30015KT P6SM OVC100
     FM270800 36015KT P6SM -SHRA BKN060
     FM271500 01018G25KT 6SM -RA BR OVC030=

USA.gov is the U.S. government's official web portal to all federal, state and local government web resources and services.